Naxos — SY2762 — position and weather

sailwx.info

Track history (hours):
 
Tides and Currents Weather Stations Pressure Air Temp Water Temp Dewpoint Dewpoint Depression Visibility Wind Speed Wind Dir Waves Ship Positions

Naxos

Last reported at 2018-Feb-17 02:04 UTC. Time now 2018-Feb-19 22:17 UTC.
Position N 37°02' E 025°16'.

Length 34 m; draft 2.3 m.

Type: Fishing. MMSI: 240010000.

Date/timePositionNaut miles runAvg speedWind from/ knotsBaromVisibWave heightAir tempDewpointWater temp
2018-Feb-17 02:04N 37°02' E 025°16'0 0.0
2018-Feb-17 02:00N 37°02' E 025°16'0 0.0
2018-Feb-17 01:30N 37°02' E 025°16'0 0.0
2018-Feb-17 01:00N 37°02' E 025°16'0 0.0
2018-Feb-17 00:30N 37°02' E 025°16'0 0.0
2018-Feb-17 00:00N 37°02' E 025°16'0 0.0
2018-Feb-16 23:30N 37°02' E 025°16'0 0.0
2018-Feb-16 23:00N 37°02' E 025°16'0 0.0
2018-Feb-16 22:30N 37°02' E 025°16'0 0.0
2018-Feb-16 22:00N 37°02' E 025°16'0 0.0
2018-Feb-16 21:30N 37°02' E 025°16'0 0.0
2018-Feb-16 21:00N 37°02' E 025°16'0 0.0
2018-Feb-16 20:30N 37°02' E 025°16'0 0.0
2018-Feb-16 20:00N 37°02' E 025°16'0 0.0
2018-Feb-16 19:30N 37°02' E 025°16'0 0.0
2018-Feb-16 19:00N 37°02' E 025°16'0 0.0
2018-Feb-16 18:30N 37°02' E 025°16'0 0.0
2018-Feb-16 18:00N 37°02' E 025°16'0 0.0
2018-Feb-16 17:30N 37°02' E 025°16'0 0.0
2018-Feb-16 16:59N 37°02' E 025°16'0 0.0
2018-Feb-16 16:30N 37°02' E 025°16'0 0.0
2018-Feb-16 16:00N 37°02' E 025°16'0 0.0
2018-Feb-16 15:30N 37°02' E 025°16'0 0.0
2018-Feb-16 15:00N 37°02' E 025°16'0 0.1
2018-Feb-16 14:30N 37°02' E 025°15'4 7.8
2018-Feb-16 14:00N 36°59' E 025°19'27 0.8
2018-Feb-15 04:04N 37°12' E 024°50'0 5.4
2018-Feb-15 04:01N 37°12' E 024°50'3 6.7
2018-Feb-15 03:30N 37°15' E 024°53'3 6.5
2018-Feb-15 03:00N 37°17' E 024°55'3 7.0
2018-Feb-15 02:30N 37°20' E 024°58'7 7.2
2018-Feb-15 01:28N 37°26' E 025°04'3 7.4
2018-Feb-15 01:00N 37°29' E 025°06'4 7.3
2018-Feb-15 00:30N 37°32' E 025°09'1 1.4
2018-Feb-15 00:00N 37°32' E 025°10'0 0.0
2018-Feb-14 23:30N 37°32' E 025°10'0 0.0
2018-Feb-14 23:00N 37°32' E 025°10'0 0.0
2018-Feb-14 22:31N 37°32' E 025°10'0 0.0
2018-Feb-14 22:01N 37°32' E 025°10'0 0.0
2018-Feb-14 21:30N 37°32' E 025°10'2 3.8
2018-Feb-14 21:01N 37°32' E 025°07'5 9.0
2018-Feb-14 20:30N 37°35' E 025°03'11 2.6
2018-Feb-14 16:21N 37°41' E 025°14'0 0.8
2018-Feb-14 15:54N 37°42' E 025°14'1 0.1
2018-Feb-14 04:28N 37°42' E 025°12'1 0.1
2018-Feb-13 16:49N 37°42' E 025°14'0 0.3
2018-Feb-13 16:29N 37°42' E 025°14'5 3.1
2018-Feb-13 14:49N 37°44' E 025°08'10 0.8
2018-Feb-13 02:34N 37°36' E 025°16'0 8.6
2018-Feb-13 02:30N 37°35' E 025°16'4 8.6
2018-Feb-13 02:00N 37°31' E 025°14'4 7.4
2018-Feb-13 01:30N 37°32' E 025°09'1 1.2
2018-Feb-13 01:00N 37°32' E 025°10'0 0.0
2018-Feb-13 00:30N 37°32' E 025°10'0 0.0
2018-Feb-13 00:00N 37°32' E 025°10'0 0.0
2018-Feb-12 23:31N 37°32' E 025°10'0 0.0
2018-Feb-12 23:00N 37°32' E 025°10'0 0.0
2018-Feb-12 22:30N 37°32' E 025°10'0 0.0
2018-Feb-12 22:00N 37°32' E 025°10'0 0.0
2018-Feb-12 21:30N 37°32' E 025°10'0 0.0
2018-Feb-12 21:01N 37°32' E 025°10'0 0.0
2018-Feb-12 20:31N 37°32' E 025°10'0 0.0
2018-Feb-12 20:00N 37°32' E 025°10'0 0.0
2018-Feb-12 19:31N 37°32' E 025°10'0 0.0
2018-Feb-12 19:00N 37°32' E 025°10'3 4.7
2018-Feb-12 18:24N 37°31' E 025°13'3 7.5
2018-Feb-12 18:01N 37°33' E 025°16'4 8.4
2018-Feb-12 17:31N 37°37' E 025°16'5 6.2
2018-Feb-12 16:40N 37°42' E 025°14'0 1.7
2018-Feb-12 16:26N 37°42' E 025°14'  
2018-Feb-10 03:06N 37°35' E 025°17'1 7.1
2018-Feb-10 03:00N 37°35' E 025°17'4 7.2
2018-Feb-10 02:30N 37°31' E 025°16'3 6.6
2018-Feb-10 02:00N 37°30' E 025°12'2 3.2
2018-Feb-10 01:30N 37°30' E 025°10'1 2.6
2018-Feb-10 01:00N 37°28' E 025°09'2 2.8
2018-Feb-10 00:27N 37°27' E 025°09'5 4.1
2018-Feb-09 23:19N 37°22' E 025°07'1 3.1
2018-Feb-09 23:00N 37°22' E 025°07'1 3.2
2018-Feb-09 22:46N 37°21' E 025°06'10 2.9
2018-Feb-09 19:30N 37°13' E 024°59'9 0.2
2018-Feb-08 01:30N 37°04' E 025°01'1 2.9
2018-Feb-08 01:00N 37°05' E 025°03'1 1.3
2018-Feb-08 00:29N 37°04' E 025°02'1 1.8
2018-Feb-08 00:00N 37°05' E 025°03'1 1.3
2018-Feb-07 23:30N 37°04' E 025°02'0 0.9
2018-Feb-07 23:00N 37°05' E 025°02'0 0.5
2018-Feb-07 22:30N 37°04' E 025°02'1 1.5
2018-Feb-07 22:00N 37°04' E 025°01'0 0.8
2018-Feb-07 21:31N 37°04' E 025°01'  
Track history (hours):
 
Tides and Currents Weather Stations Pressure Air Temp Water Temp Dewpoint Dewpoint Depression Visibility Wind Speed Wind Dir Waves Ship Positions

Naxos

Last reported at 2018-Feb-17 02:04 UTC. Time now 2018-Feb-19 22:17 UTC.
Position N 37°02' E 025°16'.

Length 34 m; draft 2.3 m.

Type: Fishing. MMSI: 240010000.

Date/timePositionNaut miles runAvg speedWind from/ knotsBaromVisibWave heightAir tempDewpointWater temp
2018-Feb-17 02:04N 37°02' E 025°16'0 0.0
2018-Feb-17 02:00N 37°02' E 025°16'0 0.0
2018-Feb-17 01:30N 37°02' E 025°16'0 0.0
2018-Feb-17 01:00N 37°02' E 025°16'0 0.0
2018-Feb-17 00:30N 37°02' E 025°16'0 0.0
2018-Feb-17 00:00N 37°02' E 025°16'0 0.0
2018-Feb-16 23:30N 37°02' E 025°16'0 0.0
2018-Feb-16 23:00N 37°02' E 025°16'0 0.0
2018-Feb-16 22:30N 37°02' E 025°16'0 0.0
2018-Feb-16 22:00N 37°02' E 025°16'0 0.0
2018-Feb-16 21:30N 37°02' E 025°16'0 0.0
2018-Feb-16 21:00N 37°02' E 025°16'0 0.0
2018-Feb-16 20:30N 37°02' E 025°16'0 0.0
2018-Feb-16 20:00N 37°02' E 025°16'0 0.0
2018-Feb-16 19:30N 37°02' E 025°16'0 0.0
2018-Feb-16 19:00N 37°02' E 025°16'0 0.0
2018-Feb-16 18:30N 37°02' E 025°16'0 0.0
2018-Feb-16 18:00N 37°02' E 025°16'0 0.0
2018-Feb-16 17:30N 37°02' E 025°16'0 0.0
2018-Feb-16 16:59N 37°02' E 025°16'0 0.0
2018-Feb-16 16:30N 37°02' E 025°16'0 0.0
2018-Feb-16 16:00N 37°02' E 025°16'0 0.0
2018-Feb-16 15:30N 37°02' E 025°16'0 0.0
2018-Feb-16 15:00N 37°02' E 025°16'0 0.1
2018-Feb-16 14:30N 37°02' E 025°15'4 7.8
2018-Feb-16 14:00N 36°59' E 025°19'27 0.8
2018-Feb-15 04:04N 37°12' E 024°50'0 5.4
2018-Feb-15 04:01N 37°12' E 024°50'3 6.7
2018-Feb-15 03:30N 37°15' E 024°53'3 6.5
2018-Feb-15 03:00N 37°17' E 024°55'3 7.0
2018-Feb-15 02:30N 37°20' E 024°58'7 7.2
2018-Feb-15 01:28N 37°26' E 025°04'3 7.4
2018-Feb-15 01:00N 37°29' E 025°06'4 7.3
2018-Feb-15 00:30N 37°32' E 025°09'1 1.4
2018-Feb-15 00:00N 37°32' E 025°10'0 0.0
2018-Feb-14 23:30N 37°32' E 025°10'0 0.0
2018-Feb-14 23:00N 37°32' E 025°10'0 0.0
2018-Feb-14 22:31N 37°32' E 025°10'0 0.0
2018-Feb-14 22:01N 37°32' E 025°10'0 0.0
2018-Feb-14 21:30N 37°32' E 025°10'2 3.8
2018-Feb-14 21:01N 37°32' E 025°07'5 9.0
2018-Feb-14 20:30N 37°35' E 025°03'11 2.6
2018-Feb-14 16:21N 37°41' E 025°14'0 0.8
2018-Feb-14 15:54N 37°42' E 025°14'1 0.1
2018-Feb-14 04:28N 37°42' E 025°12'1 0.1
2018-Feb-13 16:49N 37°42' E 025°14'0 0.3
2018-Feb-13 16:29N 37°42' E 025°14'5 3.1
2018-Feb-13 14:49N 37°44' E 025°08'10 0.8
2018-Feb-13 02:34N 37°36' E 025°16'0 8.6
2018-Feb-13 02:30N 37°35' E 025°16'4 8.6
2018-Feb-13 02:00N 37°31' E 025°14'4 7.4
2018-Feb-13 01:30N 37°32' E 025°09'1 1.2
2018-Feb-13 01:00N 37°32' E 025°10'0 0.0
2018-Feb-13 00:30N 37°32' E 025°10'0 0.0
2018-Feb-13 00:00N 37°32' E 025°10'0 0.0
2018-Feb-12 23:31N 37°32' E 025°10'0 0.0
2018-Feb-12 23:00N 37°32' E 025°10'0 0.0
2018-Feb-12 22:30N 37°32' E 025°10'0 0.0
2018-Feb-12 22:00N 37°32' E 025°10'0 0.0
2018-Feb-12 21:30N 37°32' E 025°10'0 0.0
2018-Feb-12 21:01N 37°32' E 025°10'0 0.0
2018-Feb-12 20:31N 37°32' E 025°10'0 0.0
2018-Feb-12 20:00N 37°32' E 025°10'0 0.0
2018-Feb-12 19:31N 37°32' E 025°10'0 0.0
2018-Feb-12 19:00N 37°32' E 025°10'3 4.7
2018-Feb-12 18:24N 37°31' E 025°13'3 7.5
2018-Feb-12 18:01N 37°33' E 025°16'4 8.4
2018-Feb-12 17:31N 37°37' E 025°16'5 6.2
2018-Feb-12 16:40N 37°42' E 025°14'0 1.7
2018-Feb-12 16:26N 37°42' E 025°14'  
2018-Feb-10 03:06N 37°35' E 025°17'1 7.1
2018-Feb-10 03:00N 37°35' E 025°17'4 7.2
2018-Feb-10 02:30N 37°31' E 025°16'3 6.6
2018-Feb-10 02:00N 37°30' E 025°12'2 3.2
2018-Feb-10 01:30N 37°30' E 025°10'1 2.6
2018-Feb-10 01:00N 37°28' E 025°09'2 2.8
2018-Feb-10 00:27N 37°27' E 025°09'5 4.1
2018-Feb-09 23:19N 37°22' E 025°07'1 3.1
2018-Feb-09 23:00N 37°22' E 025°07'1 3.2
2018-Feb-09 22:46N 37°21' E 025°06'10 2.9
2018-Feb-09 19:30N 37°13' E 024°59'9 0.2
2018-Feb-08 01:30N 37°04' E 025°01'1 2.9
2018-Feb-08 01:00N 37°05' E 025°03'1 1.3
2018-Feb-08 00:29N 37°04' E 025°02'1 1.8
2018-Feb-08 00:00N 37°05' E 025°03'1 1.3
2018-Feb-07 23:30N 37°04' E 025°02'0 0.9
2018-Feb-07 23:00N 37°05' E 025°02'0 0.5
2018-Feb-07 22:30N 37°04' E 025°02'1 1.5
2018-Feb-07 22:00N 37°04' E 025°01'0 0.8
2018-Feb-07 21:31N 37°04' E 025°01'  

Dump ship's entire track history